Time;durP1;ratioP1;P1;durP2;ratioP2;P2;SDS_P1;SDS_P2;PMS_P1;PMS_P2;Temp;Humidity;BMP_temperature;BMP_pressure;BME280_temperature;BME280_humidity;BME280_pressure;Samples;Min_cycle;Max_cycle;Signal;HPM_P1;HPM_P2
2021/12/02 00:01:14;;;;;;;;;7.75;7.75;;;;;19.84;46.74;99488.53;4962743;28;45342;-72
2021/12/02 00:03:40;;;;;;;;;9.00;9.00;;;;;19.83;46.09;99484.19;4946791;28;45275;-71
2021/12/02 00:06:16;;;;;;;;;14.50;9.25;;;;;19.84;46.61;99489.41;4946606;28;46343;-72
2021/12/02 00:08:41;;;;;;;;;10.50;9.25;;;;;19.83;46.88;99490.34;4962605;28;45648;-71
2021/12/02 00:11:07;;;;;;;;;9.75;5.50;;;;;19.81;46.83;99484.25;4946630;28;45220;-71
2021/12/02 00:14:09;;;;;;;;;12.00;10.00;;;;;19.83;46.51;99487.69;4946451;28;45941;-71
2021/12/02 00:22:00;;;;;;;;;10.00;9.00;;;;;19.80;47.32;99477.22;4965252;28;45473;-72
2021/12/02 00:24:35;;;;;;;;;9.25;8.00;;;;;19.78;47.18;99479.09;4947125;28;45400;-73
2021/12/02 00:27:03;;;;;;;;;8.00;7.00;;;;;19.78;46.84;99489.69;4962356;28;46014;-72
2021/12/02 00:29:30;;;;;;;;;8.75;8.00;;;;;19.74;47.13;99494.28;4966011;28;45375;-73
2021/12/02 00:31:55;;;;;;;;;10.50;7.75;;;;;19.74;47.47;99510.16;4965480;28;48606;-72
2021/12/02 00:34:22;;;;;;;;;12.00;11.25;;;;;19.74;47.28;99510.16;4964859;28;57339;-73
2021/12/02 00:36:51;;;;;;;;;10.25;7.25;;;;;19.73;47.66;99513.75;4937132;28;46852;-73
2021/12/02 00:39:19;;;;;;;;;9.00;9.00;;;;;19.74;47.51;99506.66;4949332;28;45437;-73
2021/12/02 00:41:45;;;;;;;;;15.25;10.00;;;;;19.76;47.70;99515.38;4965772;28;45324;-72
2021/12/02 00:44:10;;;;;;;;;8.75;8.50;;;;;19.76;47.84;99518.03;4965604;28;45354;-72
2021/12/02 00:46:36;;;;;;;;;10.75;7.25;;;;;19.75;47.64;99514.53;4965658;28;46458;-72
2021/12/02 00:49:03;;;;;;;;;6.75;6.75;;;;;19.76;47.15;99516.25;4981449;28;45222;-72
2021/12/02 00:51:30;;;;;;;;;7.00;6.00;;;;;19.74;47.17;99507.53;4965856;28;45532;-72
2021/12/02 00:53:55;;;;;;;;;6.75;6.00;;;;;19.72;46.99;99516.44;4965283;28;45587;-71
2021/12/02 00:56:22;;;;;;;;;9.25;8.00;;;;;19.69;47.17;99514.81;4949212;28;48122;-70
2021/12/02 00:58:48;;;;;;;;;9.75;8.00;;;;;19.69;47.31;99516.59;4982656;28;45395;-71
2021/12/02 01:01:14;;;;;;;;;8.00;7.50;;;;;19.67;47.56;99516.69;4983241;28;45310;-71
2021/12/02 01:03:40;;;;;;;;;8.75;8.75;;;;;19.69;47.30;99519.25;4964852;28;45555;-71
2021/12/02 01:06:06;;;;;;;;;8.25;7.25;;;;;19.69;47.29;99522.75;4948938;28;47645;-72
2021/12/02 01:08:35;;;;;;;;;11.25;6.25;;;;;19.69;47.19;99530.69;4965104;28;45269;-71
2021/12/02 01:11:01;;;;;;;;;11.50;9.50;;;;;19.70;47.64;99535.06;4982758;28;45328;-72
2021/12/02 01:13:26;;;;;;;;;10.25;8.00;;;;;19.71;47.71;99530.63;4965040;28;45314;-71
2021/12/02 01:15:52;;;;;;;;;7.50;6.25;;;;;19.72;46.97;99540.28;4948656;28;50103;-72
2021/12/02 01:18:18;;;;;;;;;9.00;9.00;;;;;19.72;47.71;99546.44;4948804;28;45366;-71
2021/12/02 01:20:45;;;;;;;;;11.00;8.50;;;;;19.72;47.66;99541.16;4948770;28;45654;-72
2021/12/02 01:23:10;;;;;;;;;7.00;7.00;;;;;19.70;47.27;99550.09;4965301;28;45335;-72
2021/12/02 01:25:36;;;;;;;;;9.50;9.25;;;;;19.70;47.66;99547.44;4948754;28;47164;-71
2021/12/02 01:28:01;;;;;;;;;10.75;10.75;;;;;19.69;47.41;99543.94;4964631;28;45754;-72
2021/12/02 01:30:28;;;;;;;;;9.00;8.75;;;;;19.69;47.92;99549.22;4949083;28;45429;-71
2021/12/02 01:33:02;;;;;;;;;8.75;6.25;;;;;19.69;47.49;99543.06;4964718;28;45467;-71
2021/12/02 01:35:28;;;;;;;;;11.75;9.00;;;;;19.68;48.14;99547.50;4964402;28;47088;-71
2021/12/02 01:37:53;;;;;;;;;13.75;8.50;;;;;19.70;47.96;99553.59;4948571;28;45265;-71
2021/12/02 01:40:19;;;;;;;;;10.75;9.75;;;;;19.69;47.41;99554.53;4947848;28;45283;-71
2021/12/02 01:42:45;;;;;;;;;8.50;7.00;;;;;19.67;48.13;99556.38;4964676;28;45280;-71
2021/12/02 01:45:10;;;;;;;;;11.50;9.75;;;;;19.66;47.79;99562.63;4948577;28;47757;-71
2021/12/02 01:47:36;;;;;;;;;8.75;8.75;;;;;19.66;47.76;99565.25;4964711;28;45996;-72
2021/12/02 01:50:04;;;;;;;;;11.50;10.25;;;;;19.64;48.17;99572.44;4965171;28;45319;-72
2021/12/02 01:52:31;;;;;;;;;9.50;6.00;;;;;19.65;48.50;99578.56;4981182;28;45588;-72
2021/12/02 01:55:08;;;;;;;;;12.75;9.75;;;;;19.65;47.75;99578.56;4980824;28;45295;-72
2021/12/02 01:57:35;;;;;;;;;10.75;9.75;;;;;19.65;48.09;99578.56;4964418;28;45224;-72
2021/12/02 02:00:11;;;;;;;;;9.25;8.50;;;;;19.67;48.51;99584.66;4948154;28;45203;-72
2021/12/02 02:02:38;;;;;;;;;11.25;11.25;;;;;19.68;48.37;99584.56;4948275;28;45323;-72
2021/12/02 02:05:07;;;;;;;;;8.25;7.75;;;;;19.69;47.99;99591.56;4964005;28;45966;-72
2021/12/02 02:07:32;;;;;;;;;9.00;8.50;;;;;19.67;48.26;99593.44;4964736;28;45283;-72
2021/12/02 02:09:58;;;;;;;;;12.50;12.00;;;;;19.64;47.80;99604.19;4948280;28;45303;-72
2021/12/02 02:12:24;;;;;;;;;9.75;8.75;;;;;19.63;48.00;99597.16;4947916;28;45648;-72
2021/12/02 02:14:50;;;;;;;;;11.25;11.25;;;;;19.65;48.21;99600.59;4964252;28;45394;-72
2021/12/02 02:17:23;;;;;;;;;9.25;9.25;;;;;19.66;47.94;99602.31;4963863;28;45274;-72
2021/12/02 02:19:48;;;;;;;;;12.00;10.75;;;;;19.64;48.17;99601.53;4963896;28;45292;-72
2021/12/02 02:22:19;;;;;;;;;12.25;9.75;;;;;19.66;48.01;99614.69;4964059;28;45983;-72
2021/12/02 02:24:45;;;;;;;;;10.50;10.00;;;;;19.63;47.57;99615.69;4963745;28;47587;-72
2021/12/02 02:27:10;;;;;;;;;12.50;8.75;;;;;19.67;47.88;99625.22;4963759;28;45354;-72
2021/12/02 02:29:35;;;;;;;;;16.00;9.00;;;;;19.67;48.20;99619.91;4964430;28;45842;-72
2021/12/02 02:32:01;;;;;;;;;12.00;9.25;;;;;19.66;48.01;99620.84;4963983;28;46160;-72
2021/12/02 02:34:26;;;;;;;;;9.75;9.00;;;;;19.66;48.47;99631.44;4963493;28;45426;-72
2021/12/02 02:36:54;;;;;;;;;11.75;9.25;;;;;19.67;47.94;99633.16;4947506;28;48817;-72
2021/12/02 02:39:20;;;;;;;;;12.50;11.00;;;;;19.66;47.68;99633.22;4981549;28;45183;-72
2021/12/02 02:41:48;;;;;;;;;11.75;10.75;;;;;19.66;47.96;99638.53;4981227;28;45420;-72
2021/12/02 02:44:13;;;;;;;;;11.50;11.50;;;;;19.66;47.68;99641.16;4964072;28;45357;-72
2021/12/02 02:46:40;;;;;;;;;10.00;8.75;;;;;19.64;47.94;99646.53;4981107;28;45271;-72
2021/12/02 02:49:10;;;;;;;;;13.00;10.75;;;;;19.63;48.04;99644.78;4980225;28;45439;-72
2021/12/02 02:51:37;;;;;;;;;9.25;7.75;;;;;19.64;48.14;99648.34;4947495;28;45548;-72
2021/12/02 02:54:05;;;;;;;;;10.00;8.00;;;;;19.66;47.99;99641.16;4981011;28;45328;-72
2021/12/02 02:56:32;;;;;;;;;10.25;8.00;;;;;19.64;48.06;99648.34;4947772;28;45417;-72
2021/12/02 02:59:10;;;;;;;;;10.00;8.00;;;;;19.62;48.07;99648.38;4963598;28;45343;-72
2021/12/02 03:07:11;;;;;;;;;14.00;10.00;;;;;19.59;47.75;99653.81;4941447;28;45514;-72
2021/12/02 03:09:50;;;;;;;;;9.50;9.00;;;;;19.57;47.86;99653.03;4954540;28;45320;-72
2021/12/02 03:12:31;;;;;;;;;9.50;9.50;;;;;19.58;47.99;99654.75;4950460;28;45433;-72
2021/12/02 03:17:26;;;;;;;;;8.00;7.00;;;;;19.57;48.15;99654.81;4963525;28;45460;-72
2021/12/02 03:19:51;;;;;;;;;8.00;7.50;;;;;19.59;47.94;99655.59;4963011;28;45822;-72
2021/12/02 03:22:17;;;;;;;;;9.50;8.00;;;;;19.60;47.94;99670.56;4943816;28;46817;-72
2021/12/02 03:24:42;;;;;;;;;8.75;7.25;;;;;19.60;47.38;99666.13;4974832;28;45292;-72
2021/12/02 03:27:08;;;;;;;;;8.75;7.25;;;;;19.59;47.92;99671.47;4963144;28;45252;-72
2021/12/02 03:29:33;;;;;;;;;9.25;9.25;;;;;19.57;47.83;99681.28;4963411;28;45275;-72
2021/12/02 03:31:59;;;;;;;;;9.25;8.00;;;;;19.58;47.23;99683.84;4963200;28;45391;-72
2021/12/02 03:34:24;;;;;;;;;8.25;8.00;;;;;19.57;47.41;99683.94;4946579;28;47948;-72
2021/12/02 03:36:50;;;;;;;;;8.75;8.00;;;;;19.59;47.60;99690.00;4930963;28;45315;-72
2021/12/02 03:39:16;;;;;;;;;12.00;8.25;;;;;19.60;47.46;99691.72;4947208;28;45347;-72
2021/12/02 03:41:41;;;;;;;;;6.75;6.75;;;;;19.60;46.77;99682.00;4962919;28;45238;-72
2021/12/02 03:44:07;;;;;;;;;6.25;6.00;;;;;19.62;47.43;99692.50;4946205;28;66024;-72
2021/12/02 03:46:32;;;;;;;;;6.25;6.25;;;;;19.62;46.86;99685.44;4946801;28;45320;-71
2021/12/02 03:48:59;;;;;;;;;12.25;9.75;;;;;19.61;47.15;99688.16;4962794;28;45255;-71
2021/12/02 03:51:24;;;;;;;;;8.50;8.50;;;;;19.62;47.61;99690.72;4946892;28;45200;-72
2021/12/02 03:53:50;;;;;;;;;10.00;7.75;;;;;19.63;47.09;99703.03;4962754;28;46084;-72
2021/12/02 03:56:15;;;;;;;;;8.25;6.50;;;;;19.62;46.97;99703.97;4978839;28;45300;-72
2021/12/02 03:58:42;;;;;;;;;10.25;7.50;;;;;19.62;47.21;99700.44;4946692;28;45596;-71
2021/12/02 04:01:08;;;;;;;;;9.50;7.00;;;;;19.62;47.33;99708.41;4962402;28;46131;-71
2021/12/02 04:03:33;;;;;;;;;5.75;5.75;;;;;19.62;47.62;99717.19;4964885;28;48303;-72
2021/12/02 04:05:59;;;;;;;;;5.75;5.75;;;;;19.61;46.79;99717.25;4965954;28;45388;-72
2021/12/02 04:08:31;;;;;;;;;11.75;9.25;;;;;19.58;47.44;99712.13;4966501;28;45249;-71
2021/12/02 04:11:14;;;;;;;;;7.00;5.50;;;;;19.58;47.05;99726.22;4950633;28;45504;-72
2021/12/02 04:16:21;;;;;;;;;10.00;8.25;;;;;19.58;47.29;99723.56;4968037;28;45418;-73
2021/12/02 04:18:46;;;;;;;;;11.50;6.75;;;;;19.53;46.56;99709.63;4965749;28;45255;-73
2021/12/02 04:21:12;;;;;;;;;5.00;5.00;;;;;19.54;46.75;99718.41;4965342;28;59856;-71
2021/12/02 04:23:37;;;;;;;;;6.75;6.75;;;;;19.54;47.02;99724.56;4966055;28;48504;-71
2021/12/02 04:26:03;;;;;;;;;7.50;6.00;;;;;19.53;47.11;99716.72;4983290;28;45276;-72
2021/12/02 04:28:28;;;;;;;;;7.00;5.50;;;;;19.53;46.40;99724.66;4949711;28;45240;-72
2021/12/02 04:30:54;;;;;;;;;8.00;7.75;;;;;19.51;46.95;99729.16;4965844;28;45554;-72
2021/12/02 04:33:19;;;;;;;;;5.50;5.25;;;;;19.49;46.90;99727.44;4964667;28;68734;-72
2021/12/02 04:35:44;;;;;;;;;7.50;6.25;;;;;19.48;46.30;99735.44;4965165;28;55722;-71
2021/12/02 04:38:10;;;;;;;;;5.25;3.50;;;;;19.49;46.59;99740.66;4966004;28;45219;-73
2021/12/02 04:40:41;;;;;;;;;8.25;8.00;;;;;19.51;46.72;99748.53;4965534;28;48092;-71
2021/12/02 04:43:07;;;;;;;;;9.25;7.00;;;;;19.50;46.45;99746.81;4965689;28;47445;-73
2021/12/02 04:45:32;;;;;;;;;9.75;6.50;;;;;19.52;46.25;99768.78;4965692;28;45308;-71
2021/12/02 04:47:57;;;;;;;;;6.00;4.75;;;;;19.51;45.66;99767.06;4981368;28;55939;-72
2021/12/02 04:50:23;;;;;;;;;8.50;6.00;;;;;19.51;45.43;99756.47;4982688;28;50813;-72
2021/12/02 04:52:49;;;;;;;;;8.75;6.00;;;;;19.47;45.19;99750.47;4964765;28;61495;-71
2021/12/02 04:55:15;;;;;;;;;7.25;6.25;;;;;19.48;45.80;99761.91;4965490;28;45200;-71
2021/12/02 04:57:40;;;;;;;;;6.50;6.50;;;;;19.50;46.16;99770.63;4982695;28;45264;-72
2021/12/02 05:00:06;;;;;;;;;7.00;6.00;;;;;19.51;45.71;99771.50;4965108;28;45499;-71
2021/12/02 05:02:32;;;;;;;;;8.50;7.25;;;;;19.54;46.43;99781.94;4965151;28;46198;-71
2021/12/02 05:04:57;;;;;;;;;7.25;6.00;;;;;19.55;46.31;99787.19;4982694;28;45345;-71
2021/12/02 05:07:22;;;;;;;;;8.50;8.00;;;;;19.58;45.92;99786.22;4982760;28;45726;-71
2021/12/02 05:09:48;;;;;;;;;5.25;5.25;;;;;19.58;45.83;99791.53;4964703;28;59452;-72
2021/12/02 05:12:13;;;;;;;;;6.50;5.25;;;;;19.57;45.44;99781.88;4981670;28;66737;-72
2021/12/02 05:14:38;;;;;;;;;9.25;7.50;;;;;19.57;46.20;99787.16;4963911;28;45285;-72
2021/12/02 05:17:04;;;;;;;;;4.25;4.25;;;;;19.56;46.01;99796.88;4964651;28;54457;-72
2021/12/02 05:19:29;;;;;;;;;5.25;4.00;;;;;19.55;45.56;99796.94;4964726;28;45401;-72
2021/12/02 05:21:55;;;;;;;;;7.00;4.00;;;;;19.56;45.80;99796.00;4948828;28;46281;-71
2021/12/02 05:24:20;;;;;;;;;7.50;4.75;;;;;19.54;45.69;99788.09;4964680;28;53518;-72
2021/12/02 05:26:45;;;;;;;;;7.00;6.25;;;;;19.56;46.68;99796.88;4980804;28;52721;-72
2021/12/02 05:29:11;;;;;;;;;6.50;6.50;;;;;19.57;45.73;99793.31;4948778;28;45252;-71
2021/12/02 05:31:36;;;;;;;;;7.75;5.75;;;;;19.57;45.75;99792.44;4964380;28;57444;-71
2021/12/02 05:34:02;;;;;;;;;9.75;7.00;;;;;19.58;45.73;99800.31;4964418;28;45213;-72
2021/12/02 05:36:38;;;;;;;;;8.00;6.25;;;;;19.61;46.35;99801.97;4948792;28;45432;-72
2021/12/02 05:39:07;;;;;;;;;5.25;5.00;;;;;19.60;46.09;99811.69;4964951;28;45352;-71
2021/12/02 05:41:32;;;;;;;;;9.00;7.00;;;;;19.60;46.05;99811.69;4964441;28;46089;-72
2021/12/02 05:43:59;;;;;;;;;7.00;6.00;;;;;19.61;46.20;99807.25;4964685;28;45334;-73
2021/12/02 05:46:25;;;;;;;;;5.75;5.75;;;;;19.61;46.46;99815.19;4964810;28;45436;-72
2021/12/02 05:48:53;;;;;;;;;8.25;6.50;;;;;19.63;46.23;99800.97;4964461;28;45605;-72
2021/12/02 05:51:18;;;;;;;;;8.50;7.00;;;;;19.62;47.57;99801.91;4964235;28;52143;-71
2021/12/02 05:53:47;;;;;;;;;9.75;9.00;;;;;19.73;48.44;99801.47;4947920;28;59976;-74
2021/12/02 05:56:25;;;;;;;;;9.25;6.25;;;;;19.86;48.67;99805.28;4981924;28;45275;-76
2021/12/02 05:58:50;;;;;;;;;8.25;5.50;;;;;19.99;48.91;99800.31;4979907;28;57234;-75
2021/12/02 06:01:18;;;;;;;;;7.50;5.00;;;;;20.08;48.97;99788.44;4964327;28;46737;-82
2021/12/02 06:03:53;;;;;;;;;13.00;10.25;;;;;20.25;49.52;99800.00;4948929;28;49174;-74
2021/12/02 06:06:18;;;;;;;;;8.00;7.00;;;;;20.34;49.54;99806.66;4983415;28;45291;-74
2021/12/02 06:08:44;;;;;;;;;8.75;6.75;;;;;20.44;49.69;99815.09;4948277;28;45358;-73
2021/12/02 06:11:09;;;;;;;;;7.25;7.00;;;;;20.53;49.94;99807.56;4963249;28;71757;-73
2021/12/02 06:13:35;;;;;;;;;8.00;6.50;;;;;20.60;50.32;99818.75;4948141;28;45269;-77
2021/12/02 06:16:00;;;;;;;;;34.25;29.75;;;;;20.70;50.69;99822.69;4964383;28;45798;-74
2021/12/02 06:18:25;;;;;;;;;81.00;73.00;;;;;20.81;51.21;99831.00;4981201;28;45499;-73
2021/12/02 06:20:53;;;;;;;;;72.00;59.50;;;;;20.95;50.89;99829.47;4947975;28;46025;-72
2021/12/02 06:23:19;;;;;;;;;56.75;46.25;;;;;21.07;50.70;99820.91;4963797;28;45480;-73
2021/12/02 06:25:45;;;;;;;;;38.50;34.50;;;;;21.16;50.52;99823.13;4982942;28;45359;-74
2021/12/02 06:28:10;;;;;;;;;36.25;31.25;;;;;21.25;50.39;99819.16;4982758;28;45325;-71
2021/12/02 06:30:35;;;;;;;;;28.50;25.75;;;;;21.33;49.88;99831.16;4963828;28;48523;-70
2021/12/02 06:33:01;;;;;;;;;25.75;23.75;;;;;21.37;49.49;99831.84;4980664;28;65901;-70
2021/12/02 06:35:34;;;;;;;;;21.75;21.25;;;;;21.41;49.72;99823.66;4963875;28;45290;-72
2021/12/02 06:37:59;;;;;;;;;21.75;20.00;;;;;21.43;49.96;99821.78;4982096;28;45556;-72
2021/12/02 06:40:25;;;;;;;;;21.00;19.00;;;;;21.49;50.47;99819.78;4963925;28;45445;-73
2021/12/02 06:42:50;;;;;;;;;19.75;15.75;;;;;21.52;50.19;99822.25;4981040;28;45255;-72
2021/12/02 06:45:16;;;;;;;;;20.25;18.50;;;;;21.55;50.71;99840.72;4980195;28;45417;-73
2021/12/02 06:47:41;;;;;;;;;16.25;15.25;;;;;21.55;49.95;99832.75;4979773;28;45571;-73
2021/12/02 06:50:18;;;;;;;;;20.50;18.75;;;;;21.53;50.13;99839.91;4979853;28;45272;-74
2021/12/02 06:52:47;;;;;;;;;21.75;18.25;;;;;21.50;50.49;99848.91;4947596;28;45755;-72
2021/12/02 06:55:12;;;;;;;;;18.25;17.25;;;;;21.52;50.22;99847.00;4979805;28;45338;-73
2021/12/02 06:57:38;;;;;;;;;21.00;17.75;;;;;21.52;50.12;99862.09;4979602;28;45333;-72
2021/12/02 07:00:07;;;;;;;;;17.50;14.75;;;;;21.51;49.57;99863.03;4979598;28;45390;-73
2021/12/02 07:02:33;;;;;;;;;17.50;15.00;;;;;21.47;49.53;99874.75;4948266;28;45324;-71
2021/12/02 07:05:03;;;;;;;;;18.00;17.25;;;;;21.49;49.70;99872.88;4963351;28;45407;-74
2021/12/02 07:07:33;;;;;;;;;17.75;16.50;;;;;21.48;50.28;99881.78;4963334;28;45559;-73
2021/12/02 07:10:02;;;;;;;;;17.25;14.00;;;;;21.46;49.54;99887.16;4964009;28;46085;-73
2021/12/02 07:12:34;;;;;;;;;14.25;12.25;;;;;21.43;49.65;99898.78;4980468;28;45357;-74
2021/12/02 07:15:06;;;;;;;;;12.00;11.00;;;;;21.44;50.00;99894.31;4964485;28;45305;-72
2021/12/02 07:17:32;;;;;;;;;17.00;14.00;;;;;21.42;49.80;99899.72;4964110;28;45271;-73
2021/12/02 07:19:59;;;;;;;;;14.00;14.00;;;;;21.41;49.57;99907.75;4962814;28;47509;-72
2021/12/02 07:22:24;;;;;;;;;14.50;13.00;;;;;21.39;49.63;99905.19;4947292;28;45365;-72
2021/12/02 07:24:49;;;;;;;;;20.00;15.50;;;;;21.39;49.44;99910.50;4962955;28;50402;-72
2021/12/02 07:27:15;;;;;;;;;13.25;13.25;;;;;21.39;49.80;99910.50;4963140;28;48248;-72
2021/12/02 07:29:41;;;;;;;;;10.75;10.00;;;;;21.38;49.79;99924.69;4947028;28;45474;-73
2021/12/02 07:32:09;;;;;;;;;12.50;11.75;;;;;21.37;48.93;99922.97;4963544;28;45392;-72
2021/12/02 07:34:36;;;;;;;;;10.00;8.00;;;;;21.31;48.32;99915.31;4980141;28;45434;-73
2021/12/02 07:37:01;;;;;;;;;11.00;9.00;;;;;21.32;47.82;99924.97;4946344;28;45572;-73
2021/12/02 07:39:27;;;;;;;;;10.00;8.50;;;;;21.32;47.72;99924.13;4962999;28;47116;-72
2021/12/02 07:41:52;;;;;;;;;8.00;7.25;;;;;21.30;46.81;99931.31;4946822;28;45739;-72
2021/12/02 07:44:18;;;;;;;;;13.75;10.25;;;;;21.29;46.79;99924.28;4962937;28;45635;-72
2021/12/02 07:46:43;;;;;;;;;8.75;8.00;;;;;21.26;46.90;99914.63;4939346;28;45454;-72
2021/12/02 07:49:11;;;;;;;;;7.50;7.00;;;;;21.29;47.05;99918.97;4940034;28;52607;-72
2021/12/02 07:51:37;;;;;;;;;7.50;7.50;;;;;21.30;46.89;99920.69;4977922;28;45512;-72
2021/12/02 07:54:02;;;;;;;;;9.00;7.00;;;;;21.27;46.73;99911.06;4941127;28;45287;-72
2021/12/02 07:56:28;;;;;;;;;7.50;6.75;;;;;21.28;46.88;99917.22;4958066;28;45711;-69
2021/12/02 07:58:53;;;;;;;;;12.25;7.00;;;;;21.29;46.86;99929.59;4972124;28;46270;-71
2021/12/02 08:01:18;;;;;;;;;10.75;8.00;;;;;21.27;47.00;99926.97;4959124;28;45332;-71
2021/12/02 08:03:44;;;;;;;;;9.00;8.50;;;;;21.29;47.23;99934.91;4973209;28;45900;-71
2021/12/02 08:06:14;;;;;;;;;9.25;8.00;;;;;21.28;46.93;99936.66;4962909;28;45358;-72
2021/12/02 08:08:43;;;;;;;;;8.75;7.75;;;;;21.29;46.60;99937.56;4946714;28;47037;-71
2021/12/02 08:11:09;;;;;;;;;8.75;7.50;;;;;21.29;46.85;99943.72;4963255;28;45371;-71
2021/12/02 08:13:35;;;;;;;;;8.75;7.75;;;;;21.29;46.50;99949.03;4962731;28;45327;-71
2021/12/02 08:16:02;;;;;;;;;11.25;9.75;;;;;21.29;47.00;99954.34;4946374;28;45308;-71
2021/12/02 08:18:28;;;;;;;;;10.00;9.00;;;;;21.30;46.77;99957.84;4979454;28;47236;-71
2021/12/02 08:20:54;;;;;;;;;9.25;7.75;;;;;21.30;47.03;99950.75;4979901;28;45227;-72
2021/12/02 08:23:19;;;;;;;;;8.25;7.25;;;;;21.30;46.85;99960.50;4954748;28;45294;-72
2021/12/02 08:25:45;;;;;;;;;10.00;7.75;;;;;21.29;46.70;99972.91;4978621;28;45853;-71
2021/12/02 08:28:10;;;;;;;;;12.50;9.75;;;;;21.30;46.95;99958.72;4979117;28;62841;-71
2021/12/02 08:30:37;;;;;;;;;11.50;9.75;;;;;21.29;47.10;99964.97;4979356;28;45254;-72
2021/12/02 08:33:03;;;;;;;;;10.00;9.00;;;;;21.31;47.16;99971.03;4962703;28;45485;-71
2021/12/02 08:35:28;;;;;;;;;10.00;6.00;;;;;21.31;47.25;99971.03;4978179;28;45542;-71
2021/12/02 08:37:58;;;;;;;;;7.25;7.00;;;;;21.32;47.31;99971.91;4961541;28;47533;-71
2021/12/02 08:40:30;;;;;;;;;10.50;9.00;;;;;21.32;47.44;99978.06;4977278;28;45373;-69
2021/12/02 08:42:55;;;;;;;;;9.50;8.00;;;;;21.34;47.89;99980.66;4970995;28;45640;-72
2021/12/02 08:45:20;;;;;;;;;9.75;7.75;;;;;21.37;48.07;99988.44;4961031;28;45462;-71
2021/12/02 08:47:46;;;;;;;;;8.00;8.00;;;;;21.41;48.69;99993.56;4954779;28;45553;-72
2021/12/02 08:50:16;;;;;;;;;7.75;7.00;;;;;21.43;48.72;99983.72;4958715;28;45386;-73
2021/12/02 08:52:41;;;;;;;;;11.00;8.50;;;;;21.49;48.36;99990.53;4933215;28;45150;-72
2021/12/02 08:55:07;;;;;;;;;8.50;6.00;;;;;21.54;48.37;99998.28;4942873;28;45683;-73
2021/12/02 08:57:33;;;;;;;;;13.50;7.75;;;;;21.59;48.02;99988.31;4948563;28;45978;-72
2021/12/02 08:59:58;;;;;;;;;9.00;7.25;;;;;21.62;48.34;99996.97;4964238;28;69101;-72
2021/12/02 09:02:23;;;;;;;;;6.25;5.50;;;;;21.67;48.16;99999.41;4933022;28;45107;-73
2021/12/02 09:04:50;;;;;;;;;9.00;7.00;;;;;21.70;48.07;99993.94;4981005;28;48690;-73
2021/12/02 09:07:15;;;;;;;;;9.50;8.25;;;;;21.72;48.11;100000.06;4964994;28;47087;-73
2021/12/02 09:09:40;;;;;;;;;9.00;7.00;;;;;21.72;47.62;100003.59;4951028;28;45395;-74
2021/12/02 09:12:08;;;;;;;;;6.75;6.00;;;;;21.75;47.61;100015.84;4982576;28;45509;-73
2021/12/02 09:14:34;;;;;;;;;9.25;7.00;;;;;21.80;47.83;100012.94;4982495;28;45218;-72
2021/12/02 09:16:59;;;;;;;;;12.00;7.75;;;;;21.81;47.67;100028.84;4982214;28;46149;-72
2021/12/02 09:19:25;;;;;;;;;7.25;7.00;;;;;21.81;47.49;100028.00;4964629;28;45355;-74
2021/12/02 09:21:50;;;;;;;;;8.50;7.50;;;;;21.79;47.95;100025.38;4964276;28;45295;-74
2021/12/02 09:24:21;;;;;;;;;7.25;6.00;;;;;21.84;47.63;100039.31;4959225;28;45182;-74
2021/12/02 09:26:48;;;;;;;;;6.50;6.00;;;;;21.82;47.30;100041.19;4949366;28;46209;-74
2021/12/02 09:29:14;;;;;;;;;8.00;5.50;;;;;21.82;47.74;100046.50;4948483;28;45990;-74
2021/12/02 09:31:40;;;;;;;;;8.75;8.00;;;;;21.81;47.41;100039.47;4948669;28;45312;-73
2021/12/02 09:34:08;;;;;;;;;8.50;6.00;;;;;21.80;47.78;100036.84;4964525;28;45223;-74
2021/12/02 09:36:33;;;;;;;;;7.75;6.00;;;;;21.75;47.03;100037.09;4964964;28;46123;-74
2021/12/02 09:38:59;;;;;;;;;8.00;7.25;;;;;21.78;47.15;100046.72;4964554;28;47535;-74
2021/12/02 09:41:24;;;;;;;;;7.50;7.00;;;;;21.77;47.34;100052.97;4948383;28;45354;-73
2021/12/02 09:43:50;;;;;;;;;6.50;6.00;;;;;21.75;47.23;100042.41;4964443;28;45551;-73
2021/12/02 09:46:15;;;;;;;;;7.50;7.50;;;;;21.75;47.47;100044.22;4964697;28;46152;-74
2021/12/02 09:48:44;;;;;;;;;8.50;7.25;;;;;21.73;47.50;100044.28;4981232;28;61176;-74
2021/12/02 09:51:13;;;;;;;;;7.00;6.00;;;;;21.73;47.63;100057.56;4981948;28;45299;-74
2021/12/02 09:53:51;;;;;;;;;9.50;6.50;;;;;21.73;47.45;100062.88;4964855;28;45454;-74
2021/12/02 09:56:24;;;;;;;;;7.50;5.00;;;;;21.72;47.45;100058.50;4982002;28;45402;-73
2021/12/02 09:58:52;;;;;;;;;5.25;5.25;;;;;21.70;47.64;100055.91;4965127;28;45421;-73
2021/12/02 10:01:19;;;;;;;;;10.00;7.25;;;;;21.69;47.36;100066.59;4979971;28;45318;-73
2021/12/02 10:03:48;;;;;;;;;8.25;5.00;;;;;21.71;47.82;100070.91;4964381;28;45309;-73
2021/12/02 10:06:28;;;;;;;;;7.50;6.25;;;;;21.70;47.64;100071.84;4981173;28;45401;-73
2021/12/02 10:09:11;;;;;;;;;8.50;6.00;;;;;21.70;47.21;100069.19;4979621;28;45379;-76
2021/12/02 10:12:00;;;;;;;;;6.25;5.00;;;;;21.71;47.54;100080.66;4976147;28;45352;-74
2021/12/02 10:14:29;;;;;;;;;7.00;7.00;;;;;21.70;47.23;100071.84;4964921;28;45270;-74
2021/12/02 10:17:14;;;;;;;;;10.00;7.50;;;;;21.69;47.26;100069.25;4964300;28;46041;-74
2021/12/02 10:19:58;;;;;;;;;7.25;7.25;;;;;21.68;47.55;100070.19;4944638;28;45661;-74
2021/12/02 10:22:24;;;;;;;;;7.75;7.25;;;;;21.70;47.39;100070.97;4935752;28;45384;-74
2021/12/02 10:24:52;;;;;;;;;8.25;6.00;;;;;21.66;47.24;100069.41;4928907;28;46420;-74
2021/12/02 10:27:18;;;;;;;;;7.00;7.00;;;;;21.67;47.38;100074.66;4964708;28;52580;-74
2021/12/02 10:29:47;;;;;;;;;8.00;7.00;;;;;21.71;47.18;100075.34;4947032;28;55153;-74
2021/12/02 10:32:21;;;;;;;;;9.50;7.50;;;;;21.67;47.21;100065.81;4981245;28;45286;-74
2021/12/02 10:34:57;;;;;;;;;8.00;5.50;;;;;21.70;47.36;100078.94;4980799;28;45472;-73
2021/12/02 10:37:30;;;;;;;;;12.25;8.00;;;;;21.67;46.98;100068.47;4981169;28;45354;-75
2021/12/02 10:40:03;;;;;;;;;11.75;11.75;;;;;21.68;47.20;100075.50;4961771;28;45469;-73
2021/12/02 10:42:29;;;;;;;;;11.00;9.00;;;;;21.67;47.20;100081.75;4962130;28;45313;-73
2021/12/02 10:44:58;;;;;;;;;12.00;9.75;;;;;21.66;46.87;100066.75;4947634;28;46400;-72
2021/12/02 10:47:23;;;;;;;;;10.50;8.75;;;;;21.65;47.23;100065.91;4958317;28;48050;-73
2021/12/02 10:49:52;;;;;;;;;10.25;9.25;;;;;21.67;47.35;100064.03;4951853;28;46113;-71
2021/12/02 10:52:25;;;;;;;;;10.25;8.50;;;;;21.67;47.13;100063.16;4962710;28;45301;-69
2021/12/02 10:55:11;;;;;;;;;11.25;8.75;;;;;21.64;47.40;100055.34;4960689;28;45687;-73
2021/12/02 10:57:38;;;;;;;;;9.25;6.50;;;;;21.66;46.78;100058.78;4955048;28;47465;-72
2021/12/02 11:00:12;;;;;;;;;8.00;7.00;;;;;21.64;46.94;100048.25;4970078;28;45309;-73
2021/12/02 11:02:49;;;;;;;;;15.50;11.00;;;;;21.65;46.78;100055.28;4948685;28;45259;-72
2021/12/02 11:05:26;;;;;;;;;9.50;6.75;;;;;21.64;46.79;100052.69;4946059;28;45608;-73
2021/12/02 11:08:13;;;;;;;;;9.50;9.50;;;;;21.64;46.63;100036.75;4980012;28;45514;-73
2021/12/02 11:10:44;;;;;;;;;7.00;7.00;;;;;21.63;46.91;100048.28;4947126;28;45390;-73
2021/12/02 11:13:10;;;;;;;;;9.25;6.75;;;;;21.62;47.00;100046.56;4946137;28;45363;-73
2021/12/02 11:15:37;;;;;;;;;9.00;7.50;;;;;21.61;46.96;100044.84;4962968;28;45298;-73
2021/12/02 11:18:09;;;;;;;;;7.25;7.25;;;;;21.60;47.08;100038.69;4980645;28;46790;-73
2021/12/02 11:20:41;;;;;;;;;7.75;7.75;;;;;21.62;46.85;100034.16;4980619;28;45537;-72
2021/12/02 11:23:15;;;;;;;;;6.50;4.00;;;;;21.63;46.95;100043.88;4979491;28;45503;-73
2021/12/02 11:25:49;;;;;;;;;8.00;6.00;;;;;21.63;47.10;100040.31;4961061;28;45433;-72
2021/12/02 11:28:15;;;;;;;;;9.50;6.00;;;;;21.60;46.75;100030.72;4978924;28;47015;-72
2021/12/02 11:30:40;;;;;;;;;6.00;6.00;;;;;21.61;46.66;100034.22;4963475;28;45299;-74
2021/12/02 11:33:07;;;;;;;;;8.00;7.00;;;;;21.62;46.76;100035.94;4979378;28;45347;-74
2021/12/02 11:35:36;;;;;;;;;6.00;6.00;;;;;21.61;46.72;100042.19;4979176;28;45912;-73
2021/12/02 11:38:03;;;;;;;;;5.50;5.00;;;;;21.60;46.66;100035.16;4965953;28;47577;-72
2021/12/02 11:40:34;;;;;;;;;8.50;7.50;;;;;21.58;46.60;100032.59;4980954;28;45413;-74
2021/12/02 11:42:59;;;;;;;;;6.00;5.00;;;;;21.58;47.03;100031.72;4979029;28;45433;-74
2021/12/02 11:45:26;;;;;;;;;6.75;5.50;;;;;21.59;46.95;100033.44;4962977;28;45203;-74